createdAt,value
2023-04-11T00:01:23.156Z,36.17
2023-04-11T00:03:49.823Z,29.60
2023-04-11T00:06:16.358Z,28.53
2023-04-11T00:08:44.485Z,25.57
2023-04-11T00:11:10.972Z,25.83
2023-04-11T00:13:37.889Z,26.47
2023-04-11T00:16:04.544Z,26.63
2023-04-11T00:18:30.991Z,26.53
2023-04-11T00:20:57.385Z,29.83
2023-04-11T00:23:23.883Z,26.40
2023-04-11T00:25:50.982Z,26.17
2023-04-11T00:28:17.433Z,26.50
2023-04-11T00:30:43.936Z,27.30
2023-04-11T00:33:10.458Z,29.43
2023-04-11T00:35:38.002Z,30.90
2023-04-11T00:38:04.936Z,29.00
2023-04-11T00:40:31.465Z,27.50
2023-04-11T00:42:57.899Z,26.70
2023-04-11T00:45:24.521Z,26.60
2023-04-11T00:47:51.051Z,28.77
2023-04-11T00:50:18.020Z,23.93
2023-04-11T00:52:46.404Z,23.93
2023-04-11T00:55:12.829Z,25.67
2023-04-11T00:57:39.495Z,25.87
2023-04-11T01:00:08.846Z,24.10
2023-04-11T01:02:35.411Z,23.07
2023-04-11T01:05:02.183Z,26.70
2023-04-11T01:07:28.685Z,24.20
2023-04-11T01:09:55.253Z,24.03
2023-04-11T01:12:21.981Z,36.67
2023-04-11T01:14:48.627Z,40.03
2023-04-11T01:17:15.557Z,40.10
2023-04-11T01:19:42.163Z,27.53
2023-04-11T01:22:08.582Z,25.27
2023-04-11T01:24:35.017Z,24.27
2023-04-11T01:27:02.251Z,26.03
2023-04-11T01:29:28.810Z,25.13
2023-04-11T01:31:55.463Z,24.87
2023-04-11T01:34:22.027Z,26.27
2023-04-11T01:36:48.439Z,26.13
2023-04-11T01:39:14.993Z,23.97
2023-04-11T01:41:41.641Z,25.10
2023-04-11T01:44:08.099Z,25.53
2023-04-11T01:46:34.718Z,27.73
2023-04-11T01:49:01.624Z,32.90
2023-04-11T01:51:28.326Z,27.67
2023-04-11T01:53:54.822Z,23.83
2023-04-11T01:56:21.502Z,24.40
2023-04-11T01:58:47.925Z,23.17
2023-04-11T02:01:16.924Z,27.53
2023-04-11T02:03:43.474Z,36.03
2023-04-11T02:06:10.105Z,32.50
2023-04-11T02:08:36.604Z,31.77
2023-04-11T02:11:03.029Z,41.80
2023-04-11T02:13:29.446Z,31.60
2023-04-11T02:15:56.082Z,43.57
2023-04-11T02:18:22.727Z,25.23
2023-04-11T02:20:50.259Z,27.47
2023-04-11T02:23:16.795Z,25.10
2023-04-11T02:25:43.787Z,21.90
2023-04-11T02:28:10.330Z,25.60
2023-04-11T02:30:36.953Z,24.47
2023-04-11T02:33:04.296Z,24.87
2023-04-11T02:35:31.050Z,35.13
2023-04-11T02:37:57.596Z,26.43
2023-04-11T02:40:24.026Z,25.57
2023-04-11T02:42:50.611Z,25.30
2023-04-11T02:45:17.080Z,23.23
2023-04-11T02:47:43.570Z,21.50
2023-04-11T02:50:10.272Z,18.67
2023-04-11T02:52:37.709Z,19.23
2023-04-11T02:55:04.325Z,22.90
2023-04-11T02:57:30.759Z,23.03
2023-04-11T02:59:57.201Z,23.00
2023-04-11T03:02:23.866Z,29.33
2023-04-11T03:04:50.724Z,26.23
2023-04-11T03:07:17.360Z,22.77
2023-04-11T03:09:44.056Z,20.80
2023-04-11T03:12:10.475Z,20.40
2023-04-11T03:14:36.924Z,17.20
2023-04-11T03:17:03.334Z,16.30
2023-04-11T03:19:29.951Z,16.33
2023-04-11T03:21:56.477Z,16.50
2023-04-11T03:24:22.949Z,13.70
2023-04-11T03:26:49.407Z,15.80
2023-04-11T03:29:16.710Z,16.47
2023-04-11T03:31:43.277Z,18.07
2023-04-11T03:34:09.762Z,18.70
2023-04-11T03:36:36.245Z,20.20
2023-04-11T03:39:03.101Z,19.27
2023-04-11T03:41:29.647Z,20.13
2023-04-11T03:43:56.067Z,16.17
2023-04-11T03:46:22.588Z,15.83
2023-04-11T03:48:49.021Z,13.47
2023-04-11T03:51:15.526Z,13.43
2023-04-11T03:53:41.949Z,12.80
2023-04-11T03:56:08.971Z,12.67
2023-04-11T03:58:36.126Z,12.47
2023-04-11T04:01:02.815Z,14.57
2023-04-11T04:03:29.610Z,17.73
2023-04-11T04:05:56.743Z,19.40
2023-04-11T04:08:23.139Z,21.57
2023-04-11T04:10:49.936Z,20.87
2023-04-11T04:13:16.735Z,19.27
2023-04-11T04:15:43.125Z,25.60
2023-04-11T04:18:09.633Z,22.30
2023-04-11T04:20:36.094Z,26.20
2023-04-11T04:23:04.877Z,22.00
2023-04-11T04:25:31.368Z,19.33
2023-04-11T04:27:58.263Z,20.90
2023-04-11T04:30:28.665Z,18.17
2023-04-11T04:32:59.318Z,20.10
2023-04-11T04:35:26.315Z,15.53
2023-04-11T04:37:54.190Z,16.97
2023-04-11T04:40:20.881Z,16.97
2023-04-11T04:42:50.024Z,15.90
2023-04-11T04:45:16.475Z,15.70
2023-04-11T04:47:42.919Z,17.83
2023-04-11T04:50:09.584Z,19.80
2023-04-11T04:52:36.370Z,20.00
2023-04-11T04:55:04.077Z,16.53
2023-04-11T04:57:32.121Z,17.43
2023-04-11T04:59:58.629Z,20.50
2023-04-11T05:02:28.255Z,18.70
2023-04-11T05:04:54.943Z,17.63
2023-04-11T05:07:21.633Z,18.27
2023-04-11T05:09:48.679Z,21.57
2023-04-11T05:12:15.428Z,18.80
2023-04-11T05:14:42.003Z,17.07
2023-04-11T05:17:08.608Z,17.87
2023-04-11T05:19:35.277Z,21.93
2023-04-11T05:22:01.915Z,17.17
2023-04-11T05:24:28.515Z,18.73
2023-04-11T05:26:55.123Z,18.07
2023-04-11T05:29:21.864Z,17.93
2023-04-11T05:31:48.359Z,20.27
2023-04-11T05:34:14.809Z,20.73
2023-04-11T05:36:42.283Z,18.47
2023-04-11T05:39:09.300Z,18.60
2023-04-11T05:41:35.757Z,16.13
2023-04-11T05:44:02.517Z,17.07
2023-04-11T05:46:29.675Z,18.63
2023-04-11T05:48:59.379Z,18.73
2023-04-11T05:51:26.718Z,19.70
2023-04-11T05:53:54.040Z,15.30
2023-04-11T05:56:21.238Z,16.70
2023-04-11T05:58:48.043Z,18.03
2023-04-11T06:01:18.295Z,16.83
2023-04-11T06:03:48.078Z,15.52
2023-04-11T06:06:14.834Z,16.98
2023-04-11T06:08:41.346Z,16.58
2023-04-11T06:11:07.874Z,16.75
2023-04-11T06:13:34.338Z,17.60
2023-04-11T06:16:01.233Z,19.60
2023-04-11T06:18:27.889Z,17.70
2023-04-11T06:20:54.437Z,17.55
2023-04-11T06:23:27.288Z,16.83
2023-04-11T06:25:53.919Z,17.08
2023-04-11T06:28:20.454Z,14.73
2023-04-11T06:30:46.983Z,14.57
2023-04-11T06:33:13.414Z,15.30
2023-04-11T06:35:39.819Z,15.90
2023-04-11T06:38:06.264Z,14.50
2023-04-11T06:40:32.688Z,13.20
2023-04-11T06:43:00.983Z,12.32
2023-04-11T06:45:27.419Z,13.32
2023-04-11T06:47:53.863Z,13.65
2023-04-11T06:50:20.331Z,14.77
2023-04-11T06:52:46.786Z,13.75
2023-04-11T06:55:15.530Z,13.65
2023-04-11T06:57:43.008Z,14.45
2023-04-11T07:00:09.693Z,12.82
2023-04-11T07:02:36.290Z,12.52
2023-04-11T07:05:03.460Z,13.05
2023-04-11T07:07:29.959Z,13.88
2023-04-11T07:09:56.441Z,12.43
2023-04-11T07:12:22.958Z,12.15
2023-04-11T07:14:49.560Z,13.13
2023-04-11T07:17:16.049Z,13.07
2023-04-11T07:19:42.510Z,10.77
2023-04-11T07:22:08.951Z,11.50
2023-04-11T07:24:35.635Z,10.57
2023-04-11T07:27:02.314Z,11.55
2023-04-11T07:29:29.085Z,9.75
2023-04-11T07:31:55.803Z,10.05
2023-04-11T07:34:22.426Z,9.73
2023-04-11T07:36:50.195Z,11.95
2023-04-11T07:39:16.822Z,11.05
2023-04-11T07:41:43.268Z,10.48
2023-04-11T07:44:09.875Z,10.60
2023-04-11T07:46:36.289Z,10.50
2023-04-11T07:49:02.791Z,10.32
2023-04-11T07:51:29.256Z,13.20
2023-04-11T07:53:55.976Z,11.23
2023-04-11T07:56:22.574Z,11.13
2023-04-11T07:58:49.176Z,10.82
2023-04-11T08:01:22.663Z,14.60
2023-04-11T08:03:49.284Z,14.50
2023-04-11T08:06:18.906Z,12.10
2023-04-11T08:08:46.186Z,15.18
2023-04-11T08:11:12.668Z,14.95
2023-04-11T08:13:39.634Z,14.82
2023-04-11T08:16:06.938Z,11.75
2023-04-11T08:18:33.490Z,11.43
2023-04-11T08:20:59.922Z,10.02
2023-04-11T08:23:26.343Z,9.65
2023-04-11T08:25:52.779Z,9.85
2023-04-11T08:28:19.509Z,9.57
2023-04-11T08:30:46.047Z,10.13
2023-04-11T08:33:12.858Z,10.32
2023-04-11T08:35:43.026Z,9.75
2023-04-11T08:38:09.801Z,12.85
2023-04-11T08:40:36.407Z,10.93
2023-04-11T08:43:02.862Z,13.15
2023-04-11T08:45:29.311Z,9.60
2023-04-11T08:47:55.918Z,10.15
2023-04-11T08:50:22.430Z,9.35
2023-04-11T08:52:48.856Z,11.23
2023-04-11T08:55:15.353Z,9.50
2023-04-11T08:57:43.384Z,9.23
2023-04-11T09:00:19.397Z,9.45
2023-04-11T09:02:59.225Z,9.88
2023-04-11T09:05:29.913Z,9.57
2023-04-11T09:07:57.501Z,10.02
2023-04-11T09:10:24.418Z,9.77
2023-04-11T09:12:51.075Z,16.02
2023-04-11T09:15:23.681Z,10.38
2023-04-11T09:17:50.310Z,11.05
2023-04-11T09:20:17.881Z,11.27
2023-04-11T09:22:44.523Z,14.80
2023-04-11T09:25:10.981Z,8.70
2023-04-11T09:27:37.399Z,12.38
2023-04-11T09:30:06.062Z,18.90
2023-04-11T09:32:36.463Z,8.50
2023-04-11T09:35:12.317Z,7.45
2023-04-11T09:37:43.291Z,7.90
2023-04-11T09:40:09.810Z,7.85
2023-04-11T09:42:36.670Z,10.48
2023-04-11T09:45:03.995Z,8.25
2023-04-11T09:47:33.744Z,7.38
2023-04-11T09:50:00.434Z,7.15
2023-04-11T09:52:27.254Z,8.13
2023-04-11T09:54:53.684Z,7.75
2023-04-11T09:57:20.176Z,7.43
2023-04-11T09:59:46.902Z,7.60
2023-04-11T10:02:13.479Z,7.82
2023-04-11T10:04:41.001Z,7.75
2023-04-11T10:07:14.259Z,7.25
2023-04-11T10:09:41.105Z,7.05
2023-04-11T10:12:07.747Z,7.25
2023-04-11T10:14:37.423Z,6.70
2023-04-11T10:17:20.586Z,6.97
2023-04-11T10:19:49.482Z,7.00
2023-04-11T10:22:39.062Z,7.30
2023-04-11T10:25:18.294Z,7.55
2023-04-11T10:27:48.876Z,6.60
2023-04-11T10:30:15.404Z,7.10
2023-04-11T10:32:42.047Z,7.93
2023-04-11T10:35:17.676Z,7.80
2023-04-11T10:37:44.164Z,7.32
2023-04-11T10:40:11.019Z,8.68
2023-04-11T10:42:43.608Z,8.40
2023-04-11T10:45:16.462Z,8.38
2023-04-11T10:47:43.239Z,7.50
2023-04-11T10:50:28.583Z,8.60
2023-04-11T10:52:55.539Z,7.47
2023-04-11T10:55:22.312Z,8.07
2023-04-11T10:58:03.996Z,8.85
2023-04-11T11:00:32.652Z,8.45
2023-04-11T11:03:00.189Z,8.18
2023-04-11T11:05:26.862Z,7.55
2023-04-11T11:07:53.559Z,7.68
2023-04-11T11:10:34.608Z,7.63
2023-04-11T11:13:01.010Z,7.28
2023-04-11T11:15:27.421Z,6.60
2023-04-11T11:17:53.884Z,7.30
2023-04-11T11:20:20.418Z,6.43
2023-04-11T11:23:07.246Z,7.53
2023-04-11T11:25:33.786Z,7.10
2023-04-11T11:28:07.357Z,6.72
2023-04-11T11:30:37.171Z,8.30
2023-04-11T11:33:17.912Z,7.57
2023-04-11T11:36:04.603Z,7.63
2023-04-11T11:38:31.205Z,7.05
2023-04-11T11:40:58.034Z,8.25
2023-04-11T11:43:27.791Z,7.88
2023-04-11T11:46:08.735Z,7.55
2023-04-11T11:48:35.535Z,7.53
2023-04-11T11:51:01.979Z,7.78
2023-04-11T11:53:28.377Z,8.40
2023-04-11T11:55:57.031Z,8.18
2023-04-11T11:58:23.606Z,8.40
2023-04-11T12:00:50.441Z,8.13
2023-04-11T12:03:18.830Z,8.27
2023-04-11T12:05:45.417Z,8.95
2023-04-11T12:08:12.096Z,8.88
2023-04-11T12:10:42.249Z,8.38
2023-04-11T12:13:19.743Z,8.10
2023-04-11T12:15:55.976Z,8.68
2023-04-11T12:18:23.002Z,8.77
2023-04-11T12:20:50.131Z,9.02
2023-04-11T12:23:17.065Z,9.60
2023-04-11T12:25:43.655Z,8.90
2023-04-11T12:28:10.206Z,9.80
2023-04-11T12:30:37.589Z,9.45
2023-04-11T12:33:04.525Z,9.55
2023-04-11T12:35:31.192Z,10.48
2023-04-11T12:37:57.710Z,10.18
2023-04-11T12:40:24.437Z,9.88
2023-04-11T12:42:56.733Z,10.63
2023-04-11T12:45:23.976Z,10.55
2023-04-11T12:47:51.706Z,11.00
2023-04-11T12:50:18.459Z,10.18
2023-04-11T12:52:44.923Z,10.52
2023-04-11T12:55:12.461Z,11.43
2023-04-11T12:57:38.908Z,10.38
2023-04-11T13:00:07.171Z,10.30
2023-04-11T13:02:42.321Z,9.60
2023-04-11T13:05:11.225Z,10.77
2023-04-11T13:07:38.122Z,10.50
2023-04-11T13:10:07.230Z,10.55
2023-04-11T13:12:39.604Z,10.43
2023-04-11T13:15:06.570Z,9.80
2023-04-11T13:17:33.300Z,9.98
2023-04-11T13:19:59.763Z,10.38
2023-04-11T13:22:27.217Z,9.13
2023-04-11T13:24:53.635Z,10.45
2023-04-11T13:27:20.133Z,10.23
2023-04-11T13:29:46.594Z,9.93
2023-04-11T13:32:13.012Z,9.90
2023-04-11T13:34:39.430Z,9.02
2023-04-11T13:37:06.126Z,9.43
2023-04-11T13:39:32.563Z,9.52
2023-04-11T13:41:59.054Z,8.68
2023-04-11T13:44:25.502Z,9.23
2023-04-11T13:46:52.159Z,9.13
2023-04-11T13:49:18.598Z,8.77
2023-04-11T13:51:45.145Z,8.25
2023-04-11T13:54:11.714Z,9.38
2023-04-11T13:56:38.530Z,9.48
2023-04-11T13:59:04.963Z,10.40
2023-04-11T14:01:31.738Z,10.30
2023-04-11T14:03:58.548Z,9.95
2023-04-11T14:06:25.193Z,10.50
2023-04-11T14:08:52.047Z,9.13
2023-04-11T14:11:18.480Z,11.43
2023-04-11T14:13:44.897Z,11.20
2023-04-11T14:16:11.379Z,11.07
2023-04-11T14:18:37.796Z,11.15
2023-04-11T14:21:08.282Z,11.20
2023-04-11T14:23:34.899Z,12.98
2023-04-11T14:26:01.344Z,11.60
2023-04-11T14:28:27.772Z,7.80
2023-04-11T14:30:55.330Z,8.38
2023-04-11T14:33:21.933Z,9.13
2023-04-11T14:35:50.523Z,8.35
2023-04-11T14:38:16.969Z,9.65
2023-04-11T14:40:43.872Z,10.40
2023-04-11T14:43:11.303Z,11.05
2023-04-11T14:45:37.981Z,10.13
2023-04-11T14:48:04.677Z,9.45
2023-04-11T14:50:31.448Z,11.43
2023-04-11T14:52:57.994Z,10.85
2023-04-11T14:55:24.447Z,11.07
2023-04-11T14:57:54.492Z,10.23
2023-04-11T15:00:21.924Z,9.23
2023-04-11T15:02:49.644Z,9.27
2023-04-11T15:05:19.750Z,9.40
2023-04-11T15:07:46.666Z,9.43
2023-04-11T15:10:13.741Z,89.10
2023-04-11T15:12:40.400Z,11.43
2023-04-11T15:15:10.594Z,8.40
2023-04-11T15:17:45.168Z,6.60
2023-04-11T15:20:11.946Z,9.15
2023-04-11T15:22:40.089Z,6.10
2023-04-11T15:25:08.252Z,5.22
2023-04-11T15:27:34.704Z,7.05
2023-04-11T15:30:02.280Z,6.85
2023-04-11T15:32:28.913Z,8.50
2023-04-11T15:34:56.645Z,8.07
2023-04-11T15:37:23.053Z,8.38
2023-04-11T15:39:53.779Z,7.60
2023-04-11T15:42:20.314Z,7.80
2023-04-11T15:44:46.947Z,5.88
2023-04-11T15:47:13.561Z,6.28
2023-04-11T15:49:40.146Z,7.15
2023-04-11T15:52:07.125Z,6.97
2023-04-11T15:54:33.693Z,7.78
2023-04-11T15:57:00.263Z,7.07
2023-04-11T15:59:26.727Z,8.25
2023-04-11T16:01:54.498Z,8.88
2023-04-11T16:04:21.172Z,7.32
2023-04-11T16:06:47.751Z,7.95
2023-04-11T16:09:14.245Z,7.22
2023-04-11T16:11:41.251Z,8.00
2023-04-11T16:14:07.647Z,7.38
2023-04-11T16:16:34.140Z,7.82
2023-04-11T16:19:00.608Z,8.18
2023-04-11T16:21:27.228Z,8.75
2023-04-11T16:23:54.789Z,8.25
2023-04-11T16:26:21.545Z,8.35
2023-04-11T16:28:48.428Z,8.38
2023-04-11T16:31:21.596Z,8.00
2023-04-11T16:33:48.102Z,7.68
2023-04-11T16:36:14.774Z,7.63
2023-04-11T16:38:41.615Z,7.50
2023-04-11T16:41:08.026Z,7.53
2023-04-11T16:43:34.523Z,6.90
2023-04-11T16:46:01.209Z,7.20
2023-04-11T16:48:27.988Z,7.85
2023-04-11T16:50:54.408Z,8.10
2023-04-11T16:53:21.171Z,7.75
2023-04-11T16:55:47.598Z,8.45
2023-04-11T16:58:14.119Z,8.57
2023-04-11T17:00:40.757Z,8.57
2023-04-11T17:03:07.385Z,7.60
2023-04-11T17:05:37.995Z,8.18
2023-04-11T17:08:04.476Z,8.70
2023-04-11T17:10:31.045Z,9.80
2023-04-11T17:12:58.273Z,10.98
2023-04-11T17:15:28.641Z,20.10
2023-04-11T17:17:55.122Z,13.32
2023-04-11T17:20:22.610Z,8.57
2023-04-11T17:22:49.287Z,7.85
2023-04-11T17:25:15.809Z,7.80
2023-04-11T17:27:42.314Z,8.20
2023-04-11T17:30:12.520Z,8.02
2023-04-11T17:32:39.303Z,8.35
2023-04-11T17:35:06.726Z,8.23
2023-04-11T17:37:34.056Z,7.13
2023-04-11T17:40:00.527Z,7.65
2023-04-11T17:42:26.972Z,7.82
2023-04-11T17:44:54.650Z,7.60
2023-04-11T17:47:22.433Z,6.50
2023-04-11T17:49:48.895Z,6.47
2023-04-11T17:52:15.394Z,5.78
2023-04-11T17:54:42.045Z,6.40
2023-04-11T17:57:08.872Z,7.18
2023-04-11T17:59:35.412Z,6.63
2023-04-11T18:02:02.109Z,5.97
2023-04-11T18:04:28.946Z,6.45
2023-04-11T18:06:56.064Z,7.00
2023-04-11T18:09:26.615Z,7.00
2023-04-11T18:11:53.015Z,6.93
2023-04-11T18:14:19.453Z,6.07
2023-04-11T18:16:46.408Z,5.35
2023-04-11T18:19:13.602Z,7.30
2023-04-11T18:21:40.112Z,6.43
2023-04-11T18:24:06.633Z,5.68
2023-04-11T18:26:33.117Z,5.18
2023-04-11T18:29:00.467Z,4.20
2023-04-11T18:31:27.265Z,4.25
2023-04-11T18:33:54.220Z,4.63
2023-04-11T18:36:21.329Z,4.60
2023-04-11T18:38:48.515Z,4.15
2023-04-11T18:41:15.328Z,4.40
2023-04-11T18:43:41.965Z,4.10
2023-04-11T18:46:09.618Z,3.75
2023-04-11T18:48:36.543Z,4.20
2023-04-11T18:51:04.947Z,3.63
2023-04-11T18:53:31.462Z,3.67
2023-04-11T18:55:58.148Z,3.53
2023-04-11T18:58:26.439Z,3.40
2023-04-11T19:00:54.488Z,3.20
2023-04-11T19:03:21.316Z,3.90
2023-04-11T19:05:48.301Z,3.10
2023-04-11T19:08:14.869Z,3.83
2023-04-11T19:10:41.322Z,4.20
2023-04-11T19:13:07.995Z,4.45
2023-04-11T19:15:34.439Z,4.03
2023-04-11T19:18:01.897Z,4.43
2023-04-11T19:20:29.703Z,4.10
2023-04-11T19:22:56.312Z,4.13
2023-04-11T19:25:22.800Z,4.30
2023-04-11T19:27:49.786Z,5.30
2023-04-11T19:30:16.438Z,5.43
2023-04-11T19:32:44.108Z,5.20
2023-04-11T19:35:10.968Z,4.10
2023-04-11T19:37:37.662Z,3.83
2023-04-11T19:40:07.249Z,3.47
2023-04-11T19:42:37.043Z,3.43
2023-04-11T19:45:04.566Z,3.50
2023-04-11T19:47:31.689Z,4.47
2023-04-11T19:50:00.419Z,5.17
2023-04-11T19:52:27.832Z,6.77
2023-04-11T19:54:55.070Z,4.60
2023-04-11T19:57:22.282Z,6.80
2023-04-11T19:59:48.775Z,7.47
2023-04-11T20:02:15.402Z,5.50
2023-04-11T20:04:43.155Z,6.27
2023-04-11T20:07:10.202Z,7.60
2023-04-11T20:09:36.893Z,4.97
2023-04-11T20:12:05.640Z,5.63
2023-04-11T20:14:32.099Z,12.03
2023-04-11T20:16:59.699Z,7.77
2023-04-11T20:19:29.870Z,7.47
2023-04-11T20:21:56.442Z,8.13
2023-04-11T20:24:23.052Z,6.03
2023-04-11T20:26:50.214Z,4.37
2023-04-11T20:29:18.050Z,7.00
2023-04-11T20:31:44.963Z,7.43
2023-04-11T20:34:11.777Z,4.77
2023-04-11T20:36:38.603Z,8.50
2023-04-11T20:39:05.331Z,11.57
2023-04-11T20:41:32.415Z,11.97
2023-04-11T20:43:59.662Z,5.77
2023-04-11T20:46:26.262Z,4.60
2023-04-11T20:48:53.154Z,4.10
2023-04-11T20:51:19.661Z,4.23
2023-04-11T20:53:46.631Z,3.90
2023-04-11T20:56:14.857Z,3.70
2023-04-11T20:58:41.366Z,4.43
2023-04-11T21:01:07.924Z,4.63
2023-04-11T21:03:37.577Z,4.47
2023-04-11T21:06:07.712Z,4.70
2023-04-11T21:08:35.399Z,4.77
2023-04-11T21:11:02.119Z,8.20
2023-04-11T21:13:28.539Z,8.70
2023-04-11T21:15:55.237Z,6.13
2023-04-11T21:18:21.727Z,4.40
2023-04-11T21:20:48.213Z,6.93
2023-04-11T21:23:14.701Z,7.37
2023-04-11T21:25:41.349Z,7.83
2023-04-11T21:28:07.797Z,4.97
2023-04-11T21:30:35.747Z,4.10
2023-04-11T21:33:02.511Z,4.47
2023-04-11T21:35:29.099Z,4.57
2023-04-11T21:37:55.624Z,4.37
2023-04-11T21:40:22.251Z,3.50
2023-04-11T21:42:48.868Z,3.40
2023-04-11T21:45:15.691Z,4.13
2023-04-11T21:47:42.262Z,5.43
2023-04-11T21:50:09.017Z,4.87
2023-04-11T21:52:35.511Z,4.53
2023-04-11T21:55:02.071Z,4.70
2023-04-11T21:57:28.529Z,4.20
2023-04-11T21:59:55.010Z,6.00
2023-04-11T22:02:21.813Z,7.93
2023-04-11T22:05:04.576Z,8.33
2023-04-11T22:07:39.156Z,8.87
2023-04-11T22:10:10.064Z,10.57
2023-04-11T22:12:36.670Z,6.60
2023-04-11T22:15:04.122Z,7.90
2023-04-11T22:17:33.946Z,9.27
2023-04-11T22:20:00.544Z,8.73
2023-04-11T22:22:33.129Z,11.13
2023-04-11T22:24:59.603Z,7.67
2023-04-11T22:27:29.563Z,5.40
2023-04-11T22:30:02.470Z,4.20
2023-04-11T22:32:30.239Z,4.00
2023-04-11T22:34:56.775Z,4.50
2023-04-11T22:37:23.227Z,4.27
2023-04-11T22:39:50.014Z,4.00
2023-04-11T22:42:16.959Z,3.80
2023-04-11T22:44:43.391Z,3.47
2023-04-11T22:47:12.136Z,3.93
2023-04-11T22:49:41.962Z,4.00
2023-04-11T22:52:09.047Z,4.10
2023-04-11T22:54:35.628Z,3.70
2023-04-11T22:57:02.072Z,4.60
2023-04-11T22:59:28.489Z,4.20
2023-04-11T23:01:55.081Z,4.30
2023-04-11T23:04:22.197Z,4.30
2023-04-11T23:06:50.204Z,4.57
2023-04-11T23:09:20.013Z,3.93
2023-04-11T23:11:46.856Z,4.40
2023-04-11T23:14:14.430Z,4.30
2023-04-11T23:16:41.578Z,5.73
2023-04-11T23:19:08.761Z,5.97
2023-04-11T23:21:35.268Z,5.30
2023-04-11T23:24:02.449Z,4.10
2023-04-11T23:26:28.858Z,4.03
2023-04-11T23:28:55.504Z,5.00
2023-04-11T23:31:22.285Z,4.43
2023-04-11T23:33:48.795Z,4.90
2023-04-11T23:36:15.234Z,4.50
2023-04-11T23:38:42.008Z,4.20
2023-04-11T23:41:08.452Z,4.43
2023-04-11T23:43:34.899Z,5.57
2023-04-11T23:46:01.517Z,4.67
2023-04-11T23:48:27.972Z,4.67
2023-04-11T23:50:54.559Z,5.40
2023-04-11T23:53:21.167Z,5.63
2023-04-11T23:55:48.096Z,5.30
2023-04-11T23:58:14.610Z,5.73
